Espace membre
Imprimable
Challenges > Delhalle - Habay, 20/06/2015, BEL - Les Forges de la forêt d'Anlier
Liste des rapports > Delhalle - Les Forges - 19km - Classement
Recherche: Page: [1]
62 Entrées
 
Les réclamations ne sont plus acceptées, les résultats sont considérés comme définitifs.
RangNrNomAgeIOCLigueEquipeRéelTempsTkmMoy.ScrPtsLocalité
1.313BELMILOUD Mohamed65BELGRAC1:22:391:22:414:22 13.7992890COUVIN
2.702GIOVANNANGELO Alain63BELESM1:23:111:23:154:23 13.6999882NIVELLES
3.74BROUWIER Pierre63BELHERVE1:23:381:23:424:25 13.62102876GRAND RECHAIN
4.146VAN NEVEL Frans61BELBEHO1:25:361:25:394:31 13.31125850BRUGGE
5.580HOMBROUX Marcel62BELFCHAHANNUT JOG1:27:001:27:294:37 13.03145830MONTENAKEN
6.669BILON Eusebe62BELESM1:27:261:27:324:37 13.02147825MARCHIENNE AU PONT
7.427VAN DER LINDEN Paul66BELRCNAMUR1:28:281:28:484:41 12.84178807MALONNE
8.909HUME Yvan62BELNAC1:28:331:28:544:41 12.82181805NIVELLES
9.45PLOYAERT Eric60BELWAL'COURSE1:31:341:32:214:52 12.35250758LOBBES
10.886DEWOLF Philippe64BELESM1:32:471:33:074:55 12.24265742MERBES SAINTE MARIE
11.5470MEULEMANS Raf61BEL1:33:121:33:304:56 12.19271736DEURNE
12.5018NELISSEN Guido60BELDCLA1:33:191:33:354:56 12.18275734LEUVEN
13.55ROBERTI DE WINGHE Max60BELLACRONVAU1:34:081:35:045:01 11.99313717ARCHENNES
14.517KOLP Christian61BEL1:35:411:35:545:03 11.89326699BRUXELLES
15.246VANTSIOTIS Anasthase62FRA1:35:421:36:025:04 11.87327698BAAR
16.296DESSEILLE Ernest61BELRCNAMUR1:35:591:36:525:06 11.77351690WEPION
17.346LELOUP Yves61BELFLEUFLEU1:37:041:37:425:09 11.67369675SAINT-AMAND
18.194AUBERT Serge60BELDONDORGANES1:37:521:38:005:10 11.63376666GERPINNES
19.521RAEYMAEKERS Ludovic61BEL1:37:511:38:385:12 11.56387663EKEREN
20.5008MOUSNY Bernard60BEL1:39:271:39:315:15 11.46400646COUTHUIN
21.5002MOREAU Pierre63BELSPRL SOCIÉTÉ MÉDICAL1:39:571:41:415:22 11.21451628LÉGLISE
22.124LE CHARLIER Baudouin65BEL1:40:331:41:555:22 11.19456622NAMUR
23.5494MORLET Alain61FRACHARLEVILLES MÉZIÈRE1:41:421:41:595:23 11.18459611SECHEVAL
24.4707FAVRE Jean-Christian62FRABLAYE MARATHON1:42:131:42:215:24 11.14467604LALANDE DE FRONSAC
25.161ANGELY Gaetan68BELWATERLOO RUNNERS1:42:531:43:225:27 11.03487593WATERLOO
26.614MONFORT Jose62BELWRC LIERNEUX1:43:251:43:395:28 11.00498586VIELSALM
27.4926LHOTTE René62FRAHRC1:44:381:44:425:31 10.89513571JAMOIGNE
28.189MARIËN Rik66BELC.H.G.B.1:44:281:45:105:33 10.84525570HASELT
29.251GODEFRIDI Thierry64BELMARATHONIEN1:44:421:45:515:35 10.77544563RIXENSART
30.5237WOILLARD Jacques61BEL1:45:051:45:565:35 10.76548559MUSSON
31.5280HUGUENOT Hervé61FRABUSSY RUNNING1:45:461:46:055:35 10.75555551BUSSY
32.49DEGROOT Jean67BELFCHAHANNUT JOG1:45:541:46:305:37 10.71566548HANNUT
33.616NOEL Gerard63BELARCH1:46:521:48:055:42 10.55615527NATOYE
34.4587COSIN Jacques67FRA1:46:521:48:195:43 10.53622525SAULNES
35.5539WINDEY Frans62BELDCLA1:50:331:50:505:50 10.29681480
36.5534VANDERLINDEN Etienne66BELDCLA1:52:271:52:435:56 10.11728453HULDENBERG
37.59LIEGEOIS J.Louis63BELLAC1:52:281:53:395:59 10.03748448HEVERLEE
38.4488BECO Manu63BELBARAS1:53:131:54:596:04 9.92778435OVIFAT
39.5166SWENNEN Gilbert65BELFOULÉES DU PLAISIR1:53:421:55:136:04 9.89786429HUY
40.385BLOMMAERT Edward62BELAVN1:56:081:56:506:09 9.76826399BOUILLON
41.317GUIRCHE Albert63FRASPIBO1:56:501:57:236:11 9.71846389FEIGNIES
42.5317GERMAIN Guy63FRA1:57:141:57:266:11 9.71847386COMBS LA VILLE
43.4877KÜPPER Walter62BELLT ROCHERATH1:57:251:57:306:12 9.70851383ROCHERATH
44.4699ERARD Hubert62FRA1:59:121:59:126:17 9.56904357THIONVILLE
45.5054PERIN Jean-Louis64FRACAPHG1:59:411:59:566:19 9.51936345HUSSIGNY-GODBRANGE
46.5463BREUERY Roby61BEL1:57:582:00:046:20 9.50938358
47.5504COLLARD Andre61BEL2:00:542:01:296:24 9.39959330
48.155AKKERMANS Francois65BEL2:03:242:04:486:35 9.131017297BRASSCHAAT
49.527ARNOULD Edouard61BELENJAMBEE2:03:262:04:566:35 9.131018297WOLWUE SAINT LAMBERT
50.5695GEERTS Jean63BELZATAC LIEGE2:03:592:05:366:37 9.081032289FLÉRON
51.5134SCHMITZ Robert66BEL2:03:462:05:386:37 9.071036290BASTOGNE
52.440ETIENNE Christian64BELRCNAMUR2:07:092:08:086:45 8.901068258LEUZE-LONGCHAMPS
53.4609DANTZER Gilbert61FRAUSMD2:10:382:10:466:53 8.721112222HOUILLES
54.459LEJEUNE Christian66BEL16502:14:102:16:207:11 8.361149188VERVIERS
55.4870KIRCH Gaston61LUXORVAL2:14:122:16:217:11 8.361150188HOWALD
56.5558DUPONT Pierre64BELWAL'COURSE2:24:332:25:547:41 7.811225102THY-LE-CHÂTEAU
57.5367MALGAT Didier61FRASEALED AIR2:26:502:27:197:46 7.74125182
58.5260JEANNOT Dominique65FRAASPTT TOURS2:30:252:32:118:01 7.49126756TOURS
59.5256CORMIER Serge64FRAASPTT TOURS2:31:132:32:598:04 7.45127749TOURS
60.5324ROSSI Armand61FRAAJT2:36:242:36:398:15 7.28129813FONTAINEBLAU
61.4700ERNOULD Francis60BEL2:34:582:36:508:16 7.27131118THEUX
62.4573COCU Jean-Luc63BELRUSTAPRFM2:43:342:43:358:37 6.9713246P2RUWELZ
DNF: abandon; DSQ: disqualifié; Vitesse en km/h
Page: [1]